sensor_id;sensor_type;location;lat;lon;timestamp;P1;durP1;ratioP1;P2;durP2;ratioP2
47239;SDS011;32978;53.586;10.052;2023-02-03T00:02:28;9.32;;;8.20;;
47239;SDS011;32978;53.586;10.052;2023-02-03T00:07:25;15.82;;;9.65;;
47239;SDS011;32978;53.586;10.052;2023-02-03T00:12:21;10.05;;;8.85;;
47239;SDS011;32978;53.586;10.052;2023-02-03T00:17:18;10.75;;;8.25;;
47239;SDS011;32978;53.586;10.052;2023-02-03T00:22:14;12.80;;;9.88;;
47239;SDS011;32978;53.586;10.052;2023-02-03T00:27:11;14.10;;;10.00;;
47239;SDS011;32978;53.586;10.052;2023-02-03T00:32:07;13.10;;;9.90;;
47239;SDS011;32978;53.586;10.052;2023-02-03T00:37:04;14.32;;;9.93;;
47239;SDS011;32978;53.586;10.052;2023-02-03T00:42:00;14.65;;;10.10;;
47239;SDS011;32978;53.586;10.052;2023-02-03T00:46:59;14.43;;;10.65;;
47239;SDS011;32978;53.586;10.052;2023-02-03T00:51:56;12.82;;;9.68;;
47239;SDS011;32978;53.586;10.052;2023-02-03T00:56:53;12.52;;;9.30;;
47239;SDS011;32978;53.586;10.052;2023-02-03T01:01:49;13.95;;;10.70;;
47239;SDS011;32978;53.586;10.052;2023-02-03T01:06:46;13.02;;;10.68;;
47239;SDS011;32978;53.586;10.052;2023-02-03T01:11:42;20.58;;;11.93;;
47239;SDS011;32978;53.586;10.052;2023-02-03T01:16:39;21.63;;;12.13;;
47239;SDS011;32978;53.586;10.052;2023-02-03T01:21:36;19.52;;;12.55;;
47239;SDS011;32978;53.586;10.052;2023-02-03T01:26:32;15.98;;;11.15;;
47239;SDS011;32978;53.586;10.052;2023-02-03T01:31:32;15.98;;;12.32;;
47239;SDS011;32978;53.586;10.052;2023-02-03T01:36:33;19.70;;;11.50;;
47239;SDS011;32978;53.586;10.052;2023-02-03T01:41:31;12.65;;;10.00;;
47239;SDS011;32978;53.586;10.052;2023-02-03T01:51:32;17.75;;;10.10;;
47239;SDS011;32978;53.586;10.052;2023-02-03T01:56:30;18.15;;;10.32;;
47239;SDS011;32978;53.586;10.052;2023-02-03T02:01:30;16.27;;;11.38;;
47239;SDS011;32978;53.586;10.052;2023-02-03T02:06:28;17.10;;;11.35;;
47239;SDS011;32978;53.586;10.052;2023-02-03T02:11:24;16.45;;;10.50;;
47239;SDS011;32978;53.586;10.052;2023-02-03T02:27:19;17.15;;;9.40;;
47239;SDS011;32978;53.586;10.052;2023-02-03T02:43:02;15.98;;;9.55;;
47239;SDS011;32978;53.586;10.052;2023-02-03T02:48:25;13.48;;;9.65;;
47239;SDS011;32978;53.586;10.052;2023-02-03T02:53:26;13.25;;;9.25;;
47239;SDS011;32978;53.586;10.052;2023-02-03T02:58:27;16.23;;;9.05;;
47239;SDS011;32978;53.586;10.052;2023-02-03T03:03:26;21.10;;;9.82;;
47239;SDS011;32978;53.586;10.052;2023-02-03T03:08:26;14.32;;;8.90;;
47239;SDS011;32978;53.586;10.052;2023-02-03T03:13:29;13.73;;;8.82;;
47239;SDS011;32978;53.586;10.052;2023-02-03T03:18:30;13.18;;;7.57;;
47239;SDS011;32978;53.586;10.052;2023-02-03T03:23:35;13.88;;;7.65;;
47239;SDS011;32978;53.586;10.052;2023-02-03T03:28:41;12.38;;;8.02;;
47239;SDS011;32978;53.586;10.052;2023-02-03T03:33:43;13.73;;;8.35;;
47239;SDS011;32978;53.586;10.052;2023-02-03T03:38:41;13.65;;;8.73;;
47239;SDS011;32978;53.586;10.052;2023-02-03T03:43:42;13.77;;;8.43;;
47239;SDS011;32978;53.586;10.052;2023-02-03T03:48:50;16.40;;;9.40;;
47239;SDS011;32978;53.586;10.052;2023-02-03T03:53:50;10.80;;;7.72;;
47239;SDS011;32978;53.586;10.052;2023-02-03T03:58:51;15.27;;;7.43;;
47239;SDS011;32978;53.586;10.052;2023-02-03T04:03:49;14.05;;;7.75;;
47239;SDS011;32978;53.586;10.052;2023-02-03T04:08:51;14.48;;;8.43;;
47239;SDS011;32978;53.586;10.052;2023-02-03T04:13:47;15.02;;;8.32;;
47239;SDS011;32978;53.586;10.052;2023-02-03T04:18:43;11.48;;;7.97;;
47239;SDS011;32978;53.586;10.052;2023-02-03T04:23:40;17.90;;;9.30;;
47239;SDS011;32978;53.586;10.052;2023-02-03T04:28:36;23.75;;;17.88;;
47239;SDS011;32978;53.586;10.052;2023-02-03T04:33:33;18.73;;;17.00;;
47239;SDS011;32978;53.586;10.052;2023-02-03T04:38:29;17.52;;;15.70;;
47239;SDS011;32978;53.586;10.052;2023-02-03T04:43:26;17.35;;;15.65;;
47239;SDS011;32978;53.586;10.052;2023-02-03T04:48:22;18.92;;;16.65;;
47239;SDS011;32978;53.586;10.052;2023-02-03T04:53:19;17.80;;;16.17;;
47239;SDS011;32978;53.586;10.052;2023-02-03T04:58:15;20.73;;;17.25;;
47239;SDS011;32978;53.586;10.052;2023-02-03T05:03:12;19.08;;;17.17;;
47239;SDS011;32978;53.586;10.052;2023-02-03T05:08:08;19.08;;;17.35;;
47239;SDS011;32978;53.586;10.052;2023-02-03T05:13:05;17.98;;;16.30;;
47239;SDS011;32978;53.586;10.052;2023-02-03T05:18:01;19.20;;;17.35;;
47239;SDS011;32978;53.586;10.052;2023-02-03T05:22:57;19.92;;;17.92;;
47239;SDS011;32978;53.586;10.052;2023-02-03T05:27:54;16.90;;;15.50;;
47239;SDS011;32978;53.586;10.052;2023-02-03T05:32:51;20.25;;;16.27;;
47239;SDS011;32978;53.586;10.052;2023-02-03T05:37:47;18.67;;;16.75;;
47239;SDS011;32978;53.586;10.052;2023-02-03T05:42:47;17.77;;;16.02;;
47239;SDS011;32978;53.586;10.052;2023-02-03T05:47:44;17.88;;;15.98;;
47239;SDS011;32978;53.586;10.052;2023-02-03T05:52:41;17.55;;;16.02;;
47239;SDS011;32978;53.586;10.052;2023-02-03T05:57:37;17.83;;;16.13;;
47239;SDS011;32978;53.586;10.052;2023-02-03T06:02:34;19.60;;;17.35;;
47239;SDS011;32978;53.586;10.052;2023-02-03T06:07:30;18.85;;;16.42;;
47239;SDS011;32978;53.586;10.052;2023-02-03T06:12:27;15.88;;;14.50;;
47239;SDS011;32978;53.586;10.052;2023-02-03T06:17:24;15.38;;;14.10;;
47239;SDS011;32978;53.586;10.052;2023-02-03T06:22:21;19.05;;;13.43;;
47239;SDS011;32978;53.586;10.052;2023-02-03T06:27:17;21.00;;;13.55;;
47239;SDS011;32978;53.586;10.052;2023-02-03T06:32:13;14.13;;;12.88;;
47239;SDS011;32978;53.586;10.052;2023-02-03T06:37:10;17.50;;;13.35;;
47239;SDS011;32978;53.586;10.052;2023-02-03T06:42:06;13.35;;;12.02;;
47239;SDS011;32978;53.586;10.052;2023-02-03T06:47:03;13.20;;;12.00;;
47239;SDS011;32978;53.586;10.052;2023-02-03T06:51:59;21.75;;;12.43;;
47239;SDS011;32978;53.586;10.052;2023-02-03T06:56:56;18.05;;;11.02;;
47239;SDS011;32978;53.586;10.052;2023-02-03T07:01:52;14.32;;;11.23;;
47239;SDS011;32978;53.586;10.052;2023-02-03T07:06:48;17.45;;;11.90;;
47239;SDS011;32978;53.586;10.052;2023-02-03T07:11:45;26.48;;;14.38;;
47239;SDS011;32978;53.586;10.052;2023-02-03T07:16:41;24.02;;;13.02;;
47239;SDS011;32978;53.586;10.052;2023-02-03T07:21:38;12.60;;;11.40;;
47239;SDS011;32978;53.586;10.052;2023-02-03T07:26:34;18.48;;;13.55;;
47239;SDS011;32978;53.586;10.052;2023-02-03T07:31:31;14.45;;;12.15;;
47239;SDS011;32978;53.586;10.052;2023-02-03T07:36:27;19.85;;;12.20;;
47239;SDS011;32978;53.586;10.052;2023-02-03T07:41:24;17.35;;;11.98;;
47239;SDS011;32978;53.586;10.052;2023-02-03T07:46:20;14.70;;;11.88;;
47239;SDS011;32978;53.586;10.052;2023-02-03T07:51:17;21.05;;;12.27;;
47239;SDS011;32978;53.586;10.052;2023-02-03T07:56:13;20.58;;;13.50;;
47239;SDS011;32978;53.586;10.052;2023-02-03T08:01:14;29.02;;;14.20;;
47239;SDS011;32978;53.586;10.052;2023-02-03T08:06:11;21.43;;;12.73;;
47239;SDS011;32978;53.586;10.052;2023-02-03T08:11:09;20.85;;;14.32;;
47239;SDS011;32978;53.586;10.052;2023-02-03T08:16:06;22.50;;;18.83;;
47239;SDS011;32978;53.586;10.052;2023-02-03T08:21:02;26.85;;;22.58;;
47239;SDS011;32978;53.586;10.052;2023-02-03T08:25:59;32.35;;;22.20;;
47239;SDS011;32978;53.586;10.052;2023-02-03T08:30:56;22.02;;;19.33;;
47239;SDS011;32978;53.586;10.052;2023-02-03T08:35:53;19.10;;;16.20;;
47239;SDS011;32978;53.586;10.052;2023-02-03T08:40:49;27.77;;;20.67;;
47239;SDS011;32978;53.586;10.052;2023-02-03T08:45:46;30.00;;;20.58;;
47239;SDS011;32978;53.586;10.052;2023-02-03T08:50:42;40.30;;;15.70;;
47239;SDS011;32978;53.586;10.052;2023-02-03T08:55:40;23.65;;;13.18;;
47239;SDS011;32978;53.586;10.052;2023-02-03T09:00:36;42.58;;;12.52;;
47239;SDS011;32978;53.586;10.052;2023-02-03T09:05:33;36.55;;;10.48;;
47239;SDS011;32978;53.586;10.052;2023-02-03T09:10:30;35.55;;;10.02;;
47239;SDS011;32978;53.586;10.052;2023-02-03T09:15:26;24.48;;;7.50;;
47239;SDS011;32978;53.586;10.052;2023-02-03T09:20:23;35.42;;;9.55;;
47239;SDS011;32978;53.586;10.052;2023-02-03T09:25:22;28.02;;;10.48;;
47239;SDS011;32978;53.586;10.052;2023-02-03T09:30:18;31.50;;;9.98;;
47239;SDS011;32978;53.586;10.052;2023-02-03T09:35:15;33.38;;;11.13;;
47239;SDS011;32978;53.586;10.052;2023-02-03T09:40:19;50.85;;;12.73;;
47239;SDS011;32978;53.586;10.052;2023-02-03T09:45:26;33.92;;;11.43;;
47239;SDS011;32978;53.586;10.052;2023-02-03T09:50:26;38.65;;;11.77;;
47239;SDS011;32978;53.586;10.052;2023-02-03T09:55:29;34.33;;;10.70;;
47239;SDS011;32978;53.586;10.052;2023-02-03T10:00:34;46.15;;;10.48;;
47239;SDS011;32978;53.586;10.052;2023-02-03T10:10:48;46.95;;;11.35;;
47239;SDS011;32978;53.586;10.052;2023-02-03T10:21:19;41.45;;;12.80;;
47239;SDS011;32978;53.586;10.052;2023-02-03T10:26:27;45.88;;;14.00;;
47239;SDS011;32978;53.586;10.052;2023-02-03T10:31:27;36.50;;;11.45;;
47239;SDS011;32978;53.586;10.052;2023-02-03T10:36:36;44.25;;;11.80;;
47239;SDS011;32978;53.586;10.052;2023-02-03T10:41:38;45.45;;;14.00;;
47239;SDS011;32978;53.586;10.052;2023-02-03T10:46:36;46.95;;;11.10;;
47239;SDS011;32978;53.586;10.052;2023-02-03T10:51:49;41.28;;;10.45;;
47239;SDS011;32978;53.586;10.052;2023-02-03T10:56:47;50.67;;;12.80;;
47239;SDS011;32978;53.586;10.052;2023-02-03T11:01:44;42.55;;;10.68;;
47239;SDS011;32978;53.586;10.052;2023-02-03T11:06:52;38.90;;;10.50;;
47239;SDS011;32978;53.586;10.052;2023-02-03T11:12:01;49.13;;;14.90;;
47239;SDS011;32978;53.586;10.052;2023-02-03T11:17:20;56.20;;;14.02;;
47239;SDS011;32978;53.586;10.052;2023-02-03T11:22:40;39.00;;;11.82;;
47239;SDS011;32978;53.586;10.052;2023-02-03T11:27:37;38.30;;;10.07;;
47239;SDS011;32978;53.586;10.052;2023-02-03T11:32:34;46.63;;;12.13;;
47239;SDS011;32978;53.586;10.052;2023-02-03T11:37:39;35.00;;;10.85;;
47239;SDS011;32978;53.586;10.052;2023-02-03T11:42:37;34.15;;;10.75;;
47239;SDS011;32978;53.586;10.052;2023-02-03T11:47:42;45.15;;;12.45;;
47239;SDS011;32978;53.586;10.052;2023-02-03T11:53:10;34.00;;;10.18;;
47239;SDS011;32978;53.586;10.052;2023-02-03T12:03:17;48.72;;;11.27;;
47239;SDS011;32978;53.586;10.052;2023-02-03T12:08:39;38.13;;;10.38;;
47239;SDS011;32978;53.586;10.052;2023-02-03T12:13:57;38.77;;;11.37;;
47239;SDS011;32978;53.586;10.052;2023-02-03T12:24:18;36.55;;;10.63;;
47239;SDS011;32978;53.586;10.052;2023-02-03T12:29:25;41.75;;;12.05;;
47239;SDS011;32978;53.586;10.052;2023-02-03T12:34:41;39.13;;;12.38;;
47239;SDS011;32978;53.586;10.052;2023-02-03T12:39:48;43.00;;;10.50;;
47239;SDS011;32978;53.586;10.052;2023-02-03T12:44:52;26.27;;;9.32;;
47239;SDS011;32978;53.586;10.052;2023-02-03T12:49:58;38.33;;;10.85;;
47239;SDS011;32978;53.586;10.052;2023-02-03T12:55:12;40.30;;;10.38;;
47239;SDS011;32978;53.586;10.052;2023-02-03T13:00:18;33.92;;;9.35;;
47239;SDS011;32978;53.586;10.052;2023-02-03T13:05:31;28.80;;;8.85;;
47239;SDS011;32978;53.586;10.052;2023-02-03T13:10:41;33.97;;;11.10;;
47239;SDS011;32978;53.586;10.052;2023-02-03T13:15:44;37.55;;;11.20;;
47239;SDS011;32978;53.586;10.052;2023-02-03T13:20:44;39.75;;;11.40;;
47239;SDS011;32978;53.586;10.052;2023-02-03T13:31:25;32.38;;;9.32;;
47239;SDS011;32978;53.586;10.052;2023-02-03T13:41:48;43.67;;;10.25;;
47239;SDS011;32978;53.586;10.052;2023-02-03T13:46:49;32.75;;;9.90;;
47239;SDS011;32978;53.586;10.052;2023-02-03T13:51:47;28.10;;;10.05;;
47239;SDS011;32978;53.586;10.052;2023-02-03T13:56:51;33.17;;;10.48;;
47239;SDS011;32978;53.586;10.052;2023-02-03T14:01:50;32.58;;;9.95;;
47239;SDS011;32978;53.586;10.052;2023-02-03T14:11:50;30.27;;;10.38;;
47239;SDS011;32978;53.586;10.052;2023-02-03T14:17:52;49.05;;;11.38;;
47239;SDS011;32978;53.586;10.052;2023-02-03T14:22:30;34.20;;;10.48;;
47239;SDS011;32978;53.586;10.052;2023-02-03T14:27:27;42.33;;;11.75;;
47239;SDS011;32978;53.586;10.052;2023-02-03T14:32:25;49.75;;;11.07;;
47239;SDS011;32978;53.586;10.052;2023-02-03T14:37:54;34.40;;;10.35;;
47239;SDS011;32978;53.586;10.052;2023-02-03T14:53:46;28.02;;;11.77;;
47239;SDS011;32978;53.586;10.052;2023-02-03T14:59:05;48.33;;;12.90;;
47239;SDS011;32978;53.586;10.052;2023-02-03T15:14:26;35.72;;;11.45;;
47239;SDS011;32978;53.586;10.052;2023-02-03T15:19:31;23.85;;;9.20;;
47239;SDS011;32978;53.586;10.052;2023-02-03T15:24:33;53.05;;;12.25;;
47239;SDS011;32978;53.586;10.052;2023-02-03T15:29:32;35.38;;;11.20;;
47239;SDS011;32978;53.586;10.052;2023-02-03T15:44:42;34.85;;;10.85;;
47239;SDS011;32978;53.586;10.052;2023-02-03T15:49:44;46.42;;;12.23;;
47239;SDS011;32978;53.586;10.052;2023-02-03T15:54:43;30.27;;;10.70;;
47239;SDS011;32978;53.586;10.052;2023-02-03T15:59:55;32.60;;;11.55;;
47239;SDS011;32978;53.586;10.052;2023-02-03T16:04:55;39.75;;;11.05;;
47239;SDS011;32978;53.586;10.052;2023-02-03T16:09:52;32.83;;;9.18;;
47239;SDS011;32978;53.586;10.052;2023-02-03T16:14:51;27.75;;;10.00;;
47239;SDS011;32978;53.586;10.052;2023-02-03T16:19:49;39.50;;;12.68;;
47239;SDS011;32978;53.586;10.052;2023-02-03T16:24:46;43.47;;;13.27;;
47239;SDS011;32978;53.586;10.052;2023-02-03T16:29:42;42.00;;;13.02;;
47239;SDS011;32978;53.586;10.052;2023-02-03T16:34:57;33.80;;;12.93;;
47239;SDS011;32978;53.586;10.052;2023-02-03T16:40:13;39.13;;;15.95;;
47239;SDS011;32978;53.586;10.052;2023-02-03T16:45:31;43.53;;;17.25;;
47239;SDS011;32978;53.586;10.052;2023-02-03T16:50:46;36.30;;;17.95;;
47239;SDS011;32978;53.586;10.052;2023-02-03T16:55:53;49.85;;;18.88;;
47239;SDS011;32978;53.586;10.052;2023-02-03T17:00:52;45.28;;;20.52;;
47239;SDS011;32978;53.586;10.052;2023-02-03T17:05:50;45.58;;;18.48;;
47239;SDS011;32978;53.586;10.052;2023-02-03T17:10:46;53.75;;;19.13;;
47239;SDS011;32978;53.586;10.052;2023-02-03T17:15:45;68.25;;;21.73;;
47239;SDS011;32978;53.586;10.052;2023-02-03T17:20:44;51.42;;;20.65;;
47239;SDS011;32978;53.586;10.052;2023-02-03T17:25:43;53.72;;;20.80;;
47239;SDS011;32978;53.586;10.052;2023-02-03T17:30:40;56.30;;;21.90;;
47239;SDS011;32978;53.586;10.052;2023-02-03T17:35:40;50.05;;;22.75;;
47239;SDS011;32978;53.586;10.052;2023-02-03T17:40:39;54.70;;;21.05;;
47239;SDS011;32978;53.586;10.052;2023-02-03T17:45:54;51.00;;;22.35;;
47239;SDS011;32978;53.586;10.052;2023-02-03T17:51:16;48.38;;;19.42;;
47239;SDS011;32978;53.586;10.052;2023-02-03T17:56:33;65.18;;;21.35;;
47239;SDS011;32978;53.586;10.052;2023-02-03T18:01:30;62.83;;;23.10;;
47239;SDS011;32978;53.586;10.052;2023-02-03T18:06:27;50.50;;;23.45;;
47239;SDS011;32978;53.586;10.052;2023-02-03T18:11:24;52.83;;;21.58;;
47239;SDS011;32978;53.586;10.052;2023-02-03T18:16:22;41.45;;;23.92;;
47239;SDS011;32978;53.586;10.052;2023-02-03T18:21:24;60.63;;;22.73;;
47239;SDS011;32978;53.586;10.052;2023-02-03T18:26:22;42.78;;;18.48;;
47239;SDS011;32978;53.586;10.052;2023-02-03T18:31:18;52.72;;;20.38;;
47239;SDS011;32978;53.586;10.052;2023-02-03T18:36:16;56.70;;;23.35;;
47239;SDS011;32978;53.586;10.052;2023-02-03T18:41:15;47.15;;;19.88;;
47239;SDS011;32978;53.586;10.052;2023-02-03T18:46:23;49.38;;;21.73;;
47239;SDS011;32978;53.586;10.052;2023-02-03T18:51:23;40.03;;;19.25;;
47239;SDS011;32978;53.586;10.052;2023-02-03T18:56:21;37.10;;;18.83;;
47239;SDS011;32978;53.586;10.052;2023-02-03T19:01:27;44.28;;;18.38;;
47239;SDS011;32978;53.586;10.052;2023-02-03T19:06:26;41.90;;;21.10;;
47239;SDS011;32978;53.586;10.052;2023-02-03T19:11:25;41.92;;;18.42;;
47239;SDS011;32978;53.586;10.052;2023-02-03T19:16:24;38.20;;;17.38;;
47239;SDS011;32978;53.586;10.052;2023-02-03T19:21:21;47.50;;;19.05;;
47239;SDS011;32978;53.586;10.052;2023-02-03T19:26:18;37.53;;;19.20;;
47239;SDS011;32978;53.586;10.052;2023-02-03T19:31:14;34.88;;;18.85;;
47239;SDS011;32978;53.586;10.052;2023-02-03T19:36:13;36.85;;;16.98;;
47239;SDS011;32978;53.586;10.052;2023-02-03T19:41:09;25.85;;;16.98;;
47239;SDS011;32978;53.586;10.052;2023-02-03T19:46:07;36.70;;;19.38;;
47239;SDS011;32978;53.586;10.052;2023-02-03T19:51:03;29.75;;;17.67;;
47239;SDS011;32978;53.586;10.052;2023-02-03T19:56:01;23.85;;;17.20;;
47239;SDS011;32978;53.586;10.052;2023-02-03T20:00:57;20.75;;;15.60;;
47239;SDS011;32978;53.586;10.052;2023-02-03T20:05:54;20.70;;;14.73;;
47239;SDS011;32978;53.586;10.052;2023-02-03T20:10:51;14.90;;;13.35;;
47239;SDS011;32978;53.586;10.052;2023-02-03T20:15:48;20.25;;;14.02;;
47239;SDS011;32978;53.586;10.052;2023-02-03T20:20:49;23.75;;;14.93;;
47239;SDS011;32978;53.586;10.052;2023-02-03T20:25:50;13.75;;;12.52;;
47239;SDS011;32978;53.586;10.052;2023-02-03T20:30:51;17.40;;;14.45;;
47239;SDS011;32978;53.586;10.052;2023-02-03T20:35:49;17.48;;;14.15;;
47239;SDS011;32978;53.586;10.052;2023-02-03T20:40:46;18.45;;;14.55;;
47239;SDS011;32978;53.586;10.052;2023-02-03T20:45:43;16.05;;;13.80;;
47239;SDS011;32978;53.586;10.052;2023-02-03T20:50:42;13.77;;;12.50;;
47239;SDS011;32978;53.586;10.052;2023-02-03T20:55:43;15.30;;;13.80;;
47239;SDS011;32978;53.586;10.052;2023-02-03T21:00:40;14.77;;;13.43;;
47239;SDS011;32978;53.586;10.052;2023-02-03T21:05:38;15.48;;;13.90;;
47239;SDS011;32978;53.586;10.052;2023-02-03T21:10:37;15.80;;;14.50;;
47239;SDS011;32978;53.586;10.052;2023-02-03T21:15:36;15.73;;;14.25;;
47239;SDS011;32978;53.586;10.052;2023-02-03T21:20:33;16.23;;;14.75;;
47239;SDS011;32978;53.586;10.052;2023-02-03T21:25:33;18.05;;;16.60;;
47239;SDS011;32978;53.586;10.052;2023-02-03T21:30:30;16.90;;;15.70;;
47239;SDS011;32978;53.586;10.052;2023-02-03T21:35:33;14.80;;;13.70;;
47239;SDS011;32978;53.586;10.052;2023-02-03T21:40:32;12.95;;;12.15;;
47239;SDS011;32978;53.586;10.052;2023-02-03T21:45:34;14.32;;;13.07;;
47239;SDS011;32978;53.586;10.052;2023-02-03T21:50:33;17.13;;;15.50;;
47239;SDS011;32978;53.586;10.052;2023-02-03T21:55:31;14.63;;;13.50;;
47239;SDS011;32978;53.586;10.052;2023-02-03T22:00:41;16.02;;;15.13;;
47239;SDS011;32978;53.586;10.052;2023-02-03T22:05:44;13.43;;;12.63;;
47239;SDS011;32978;53.586;10.052;2023-02-03T22:10:41;14.00;;;13.00;;
47239;SDS011;32978;53.586;10.052;2023-02-03T22:15:41;13.63;;;12.73;;
47239;SDS011;32978;53.586;10.052;2023-02-03T22:20:38;16.30;;;15.00;;
47239;SDS011;32978;53.586;10.052;2023-02-03T22:25:35;16.13;;;14.93;;
47239;SDS011;32978;53.586;10.052;2023-02-03T22:30:33;16.60;;;15.40;;
47239;SDS011;32978;53.586;10.052;2023-02-03T22:35:30;17.38;;;16.33;;
47239;SDS011;32978;53.586;10.052;2023-02-03T22:40:27;17.65;;;16.35;;
47239;SDS011;32978;53.586;10.052;2023-02-03T22:45:24;19.52;;;17.98;;
47239;SDS011;32978;53.586;10.052;2023-02-03T22:50:21;13.25;;;12.25;;
47239;SDS011;32978;53.586;10.052;2023-02-03T22:55:30;15.70;;;14.70;;
47239;SDS011;32978;53.586;10.052;2023-02-03T23:00:27;16.63;;;15.40;;
47239;SDS011;32978;53.586;10.052;2023-02-03T23:05:24;15.10;;;13.73;;
47239;SDS011;32978;53.586;10.052;2023-02-03T23:10:22;7.43;;;6.88;;
47239;SDS011;32978;53.586;10.052;2023-02-03T23:15:20;9.50;;;7.97;;
47239;SDS011;32978;53.586;10.052;2023-02-03T23:20:16;7.93;;;7.40;;
47239;SDS011;32978;53.586;10.052;2023-02-03T23:25:13;8.32;;;7.72;;
47239;SDS011;32978;53.586;10.052;2023-02-03T23:30:10;7.80;;;7.20;;
47239;SDS011;32978;53.586;10.052;2023-02-03T23:35:07;6.97;;;6.22;;
47239;SDS011;32978;53.586;10.052;2023-02-03T23:40:22;8.90;;;8.20;;
47239;SDS011;32978;53.586;10.052;2023-02-03T23:45:18;8.63;;;7.85;;
47239;SDS011;32978;53.586;10.052;2023-02-03T23:50:15;10.02;;;9.02;;
47239;SDS011;32978;53.586;10.052;2023-02-03T23:55:16;9.65;;;8.75;;
